sensor_id;sensor_type;location;lat;lon;timestamp;P1;durP1;ratioP1;P2;durP2;ratioP2
31182;SDS011;17813;0.000;0.000;2022-09-14T07:54:30;8.00;;;7.20;;
31182;SDS011;17813;0.000;0.000;2022-09-14T07:56:59;6.97;;;6.37;;
31182;SDS011;17813;0.000;0.000;2022-09-14T07:59:25;7.40;;;6.70;;
31182;SDS011;17813;0.000;0.000;2022-09-14T08:01:53;7.40;;;6.70;;
31182;SDS011;17813;0.000;0.000;2022-09-14T08:04:20;7.20;;;6.60;;
31182;SDS011;17813;0.000;0.000;2022-09-14T08:06:46;7.30;;;6.70;;
31182;SDS011;17813;0.000;0.000;2022-09-14T08:09:16;6.80;;;6.23;;
31182;SDS011;17813;0.000;0.000;2022-09-14T08:11:43;7.30;;;6.70;;
31182;SDS011;17813;0.000;0.000;2022-09-14T08:14:10;7.20;;;6.60;;
31182;SDS011;17813;0.000;0.000;2022-09-14T08:16:39;7.50;;;6.90;;
31182;SDS011;17813;0.000;0.000;2022-09-14T08:19:10;7.30;;;6.70;;
31182;SDS011;17813;0.000;0.000;2022-09-14T14:25:17;8.23;;;7.53;;
31182;SDS011;17813;0.000;0.000;2022-09-14T14:27:56;7.60;;;7.00;;
31182;SDS011;17813;0.000;0.000;2022-09-14T14:30:25;7.37;;;6.77;;
31182;SDS011;17813;0.000;0.000;2022-09-14T14:32:55;7.37;;;6.77;;
31182;SDS011;17813;0.000;0.000;2022-09-14T14:35:25;7.00;;;6.40;;
31182;SDS011;17813;0.000;0.000;2022-09-14T14:37:54;6.67;;;6.17;;
31182;SDS011;17813;0.000;0.000;2022-09-14T14:40:22;6.27;;;5.73;;
31182;SDS011;17813;0.000;0.000;2022-09-14T14:42:54;6.60;;;6.10;;
31182;SDS011;17813;0.000;0.000;2022-09-14T14:45:23;6.30;;;5.80;;
31182;SDS011;17813;0.000;0.000;2022-09-14T14:47:52;6.37;;;5.87;;
31182;SDS011;17813;0.000;0.000;2022-09-14T14:50:21;6.27;;;5.77;;
31182;SDS011;17813;0.000;0.000;2022-09-14T14:52:51;6.17;;;5.67;;
31182;SDS011;17813;0.000;0.000;2022-09-14T14:55:19;5.83;;;5.33;;
31182;SDS011;17813;0.000;0.000;2022-09-14T14:57:47;5.67;;;5.27;;
31182;SDS011;17813;0.000;0.000;2022-09-14T15:00:16;5.17;;;4.77;;
31182;SDS011;17813;0.000;0.000;2022-09-14T15:02:45;5.70;;;5.20;;
31182;SDS011;17813;0.000;0.000;2022-09-14T15:05:13;5.20;;;4.80;;
31182;SDS011;17813;0.000;0.000;2022-09-14T15:07:41;4.50;;;4.20;;
31182;SDS011;17813;0.000;0.000;2022-09-14T15:10:09;4.60;;;4.30;;
31182;SDS011;17813;0.000;0.000;2022-09-14T15:12:47;4.07;;;3.77;;
31182;SDS011;17813;0.000;0.000;2022-09-14T15:15:15;4.30;;;4.00;;
31182;SDS011;17813;0.000;0.000;2022-09-14T15:17:45;4.13;;;3.77;;
31182;SDS011;17813;0.000;0.000;2022-09-14T15:20:14;4.30;;;3.90;;
31182;SDS011;17813;0.000;0.000;2022-09-14T15:22:42;4.40;;;4.10;;
31182;SDS011;17813;0.000;0.000;2022-09-14T15:25:10;4.80;;;4.50;;
31182;SDS011;17813;0.000;0.000;2022-09-14T15:27:41;3.87;;;3.57;;
31182;SDS011;17813;0.000;0.000;2022-09-14T15:30:10;3.97;;;3.67;;
31182;SDS011;17813;0.000;0.000;2022-09-14T15:32:38;3.87;;;3.57;;
31182;SDS011;17813;0.000;0.000;2022-09-14T15:35:07;4.00;;;3.70;;
31182;SDS011;17813;0.000;0.000;2022-09-14T15:37:38;3.70;;;3.40;;
31182;SDS011;17813;0.000;0.000;2022-09-14T15:40:06;3.87;;;3.27;;
31182;SDS011;17813;0.000;0.000;2022-09-14T15:42:33;4.20;;;3.10;;
31182;SDS011;17813;0.000;0.000;2022-09-14T15:45:00;3.40;;;3.20;;
31182;SDS011;17813;0.000;0.000;2022-09-14T15:47:28;3.07;;;2.87;;
31182;SDS011;17813;0.000;0.000;2022-09-14T15:49:55;3.23;;;2.93;;
31182;SDS011;17813;0.000;0.000;2022-09-14T15:52:22;3.30;;;3.10;;
31182;SDS011;17813;0.000;0.000;2022-09-14T15:54:49;3.33;;;3.00;;
31182;SDS011;17813;0.000;0.000;2022-09-14T15:57:16;3.20;;;2.90;;
31182;SDS011;17813;0.000;0.000;2022-09-14T15:59:42;3.20;;;3.00;;
31182;SDS011;17813;0.000;0.000;2022-09-14T16:02:10;3.47;;;3.17;;
31182;SDS011;17813;0.000;0.000;2022-09-14T16:04:38;3.37;;;3.13;;
31182;SDS011;17813;0.000;0.000;2022-09-14T16:07:05;3.37;;;3.13;;
31182;SDS011;17813;0.000;0.000;2022-09-14T16:09:35;3.80;;;3.50;;
31182;SDS011;17813;0.000;0.000;2022-09-14T16:12:03;3.80;;;3.33;;
31182;SDS011;17813;0.000;0.000;2022-09-14T16:14:31;4.00;;;3.57;;
31182;SDS011;17813;0.000;0.000;2022-09-14T16:16:59;3.53;;;3.33;;
31182;SDS011;17813;0.000;0.000;2022-09-14T16:19:29;3.83;;;3.50;;
31182;SDS011;17813;0.000;0.000;2022-09-14T16:21:59;3.50;;;3.20;;
31182;SDS011;17813;0.000;0.000;2022-09-14T19:26:18;1.03;;;0.40;;
31182;SDS011;17813;0.000;0.000;2022-09-14T19:28:45;0.57;;;0.30;;
31182;SDS011;17813;0.000;0.000;2022-09-14T19:31:17;0.30;;;0.30;;
31182;SDS011;17813;0.000;0.000;2022-09-14T19:33:48;1.27;;;0.50;;
31182;SDS011;17813;0.000;0.000;2022-09-14T19:36:16;1.23;;;0.57;;
31182;SDS011;17813;0.000;0.000;2022-09-14T19:38:45;0.70;;;0.30;;
31182;SDS011;17813;0.000;0.000;2022-09-14T19:41:16;0.20;;;0.20;;
31182;SDS011;17813;0.000;0.000;2022-09-14T19:43:44;0.40;;;0.40;;
31182;SDS011;17813;0.000;0.000;2022-09-14T19:46:12;1.50;;;0.10;;
31182;SDS011;17813;0.000;0.000;2022-09-14T19:48:42;0.20;;;0.10;;
31182;SDS011;17813;0.000;0.000;2022-09-14T19:51:17;1.17;;;0.30;;
31182;SDS011;17813;0.000;0.000;2022-09-14T19:53:50;0.63;;;0.30;;
31182;SDS011;17813;0.000;0.000;2022-09-14T19:56:19;0.13;;;0.13;;
31182;SDS011;17813;0.000;0.000;2022-09-14T19:58:50;0.27;;;0.27;;
31182;SDS011;17813;0.000;0.000;2022-09-14T20:01:20;0.30;;;0.30;;
31182;SDS011;17813;0.000;0.000;2022-09-14T20:03:49;0.47;;;0.47;;
31182;SDS011;17813;0.000;0.000;2022-09-14T20:06:19;0.90;;;0.50;;
31182;SDS011;17813;0.000;0.000;2022-09-14T20:08:58;0.37;;;0.37;;
31182;SDS011;17813;0.000;0.000;2022-09-14T20:11:28;2.03;;;0.60;;
31182;SDS011;17813;0.000;0.000;2022-09-14T20:13:58;1.10;;;0.77;;
31182;SDS011;17813;0.000;0.000;2022-09-14T20:16:28;0.90;;;0.80;;
31182;SDS011;17813;0.000;0.000;2022-09-14T20:18:58;0.80;;;0.60;;
31182;SDS011;17813;0.000;0.000;2022-09-14T20:21:28;0.70;;;0.53;;
31182;SDS011;17813;0.000;0.000;2022-09-14T20:23:58;0.80;;;0.67;;
31182;SDS011;17813;0.000;0.000;2022-09-14T21:06:26;1.03;;;0.60;;
31182;SDS011;17813;0.000;0.000;2022-09-14T21:08:52;1.93;;;0.70;;
31182;SDS011;17813;0.000;0.000;2022-09-14T21:11:21;1.30;;;0.70;;
31182;SDS011;17813;0.000;0.000;2022-09-14T21:13:52;0.63;;;0.57;;
31182;SDS011;17813;0.000;0.000;2022-09-14T21:16:21;0.57;;;0.47;;
31182;SDS011;17813;0.000;0.000;2022-09-14T21:18:54;0.60;;;0.60;;
31182;SDS011;17813;0.000;0.000;2022-09-14T21:21:44;1.07;;;0.60;;
31182;SDS011;17813;0.000;0.000;2022-09-14T21:24:12;0.97;;;0.70;;
31182;SDS011;17813;0.000;0.000;2022-09-14T21:26:40;1.10;;;0.73;;
31182;SDS011;17813;0.000;0.000;2022-09-14T21:29:19;0.70;;;0.63;;
31182;SDS011;17813;0.000;0.000;2022-09-14T21:31:47;0.60;;;0.60;;
31182;SDS011;17813;0.000;0.000;2022-09-14T21:34:14;0.50;;;0.50;;
31182;SDS011;17813;0.000;0.000;2022-09-14T21:36:43;0.73;;;0.60;;
31182;SDS011;17813;0.000;0.000;2022-09-14T21:39:16;1.03;;;0.57;;
31182;SDS011;17813;0.000;0.000;2022-09-14T21:41:46;0.60;;;0.60;;
31182;SDS011;17813;0.000;0.000;2022-09-14T21:44:13;1.53;;;0.50;;
31182;SDS011;17813;0.000;0.000;2022-09-14T21:46:41;0.50;;;0.50;;
31182;SDS011;17813;0.000;0.000;2022-09-14T21:49:15;2.40;;;0.53;;
31182;SDS011;17813;0.000;0.000;2022-09-14T21:51:45;0.40;;;0.40;;
31182;SDS011;17813;0.000;0.000;2022-09-14T21:54:13;0.87;;;0.60;;
31182;SDS011;17813;0.000;0.000;2022-09-14T21:56:41;1.60;;;0.60;;
31182;SDS011;17813;0.000;0.000;2022-09-14T21:59:13;1.33;;;0.60;;
31182;SDS011;17813;0.000;0.000;2022-09-14T22:01:42;0.70;;;0.50;;
31182;SDS011;17813;0.000;0.000;2022-09-14T22:04:13;0.70;;;0.70;;
31182;SDS011;17813;0.000;0.000;2022-09-14T22:06:48;1.47;;;0.90;;
31182;SDS011;17813;0.000;0.000;2022-09-14T23:10:52;7.33;;;6.73;;
31182;SDS011;17813;0.000;0.000;2022-09-14T23:13:20;7.77;;;7.07;;
31182;SDS011;17813;0.000;0.000;2022-09-14T23:15:47;7.90;;;7.20;;
31182;SDS011;17813;0.000;0.000;2022-09-14T23:18:15;7.63;;;7.03;;
31182;SDS011;17813;0.000;0.000;2022-09-14T23:20:43;7.60;;;6.90;;
31182;SDS011;17813;0.000;0.000;2022-09-14T23:23:10;8.07;;;7.30;;
31182;SDS011;17813;0.000;0.000;2022-09-14T23:25:39;7.80;;;7.20;;
31182;SDS011;17813;0.000;0.000;2022-09-14T23:28:06;8.27;;;7.57;;
31182;SDS011;17813;0.000;0.000;2022-09-14T23:30:36;8.20;;;7.50;;
31182;SDS011;17813;0.000;0.000;2022-09-14T23:33:03;8.40;;;7.70;;
31182;SDS011;17813;0.000;0.000;2022-09-14T23:35:31;8.63;;;7.93;;
31182;SDS011;17813;0.000;0.000;2022-09-14T23:37:58;8.27;;;7.57;;
31182;SDS011;17813;0.000;0.000;2022-09-14T23:40:25;8.50;;;7.80;;
31182;SDS011;17813;0.000;0.000;2022-09-14T23:42:52;8.23;;;7.43;;
31182;SDS011;17813;0.000;0.000;2022-09-14T23:45:20;9.27;;;8.57;;
31182;SDS011;17813;0.000;0.000;2022-09-14T23:47:48;8.77;;;8.03;;
31182;SDS011;17813;0.000;0.000;2022-09-14T23:50:14;9.17;;;8.37;;
31182;SDS011;17813;0.000;0.000;2022-09-14T23:52:41;9.20;;;8.40;;
31182;SDS011;17813;0.000;0.000;2022-09-14T23:55:09;9.83;;;9.03;;
31182;SDS011;17813;0.000;0.000;2022-09-14T23:57:36;9.50;;;8.70;;
